sensor_id;sensor_type;location;lat;lon;timestamp;P1;durP1;ratioP1;P2;durP2;ratioP2
35969;SDS011;22448;51.298;6.430;2023-10-19T00:02:09;33.47;;;19.88;;
35969;SDS011;22448;51.298;6.430;2023-10-19T00:07:09;34.80;;;22.00;;
35969;SDS011;22448;51.298;6.430;2023-10-19T00:09:42;31.33;;;20.10;;
35969;SDS011;22448;51.298;6.430;2023-10-19T00:12:12;36.15;;;22.90;;
35969;SDS011;22448;51.298;6.430;2023-10-19T00:14:42;34.28;;;20.83;;
35969;SDS011;22448;51.298;6.430;2023-10-19T00:17:09;35.35;;;20.23;;
35969;SDS011;22448;51.298;6.430;2023-10-19T00:19:37;31.98;;;21.52;;
35969;SDS011;22448;51.298;6.430;2023-10-19T00:22:24;33.35;;;21.67;;
35969;SDS011;22448;51.298;6.430;2023-10-19T00:24:51;31.45;;;21.45;;
35969;SDS011;22448;51.298;6.430;2023-10-19T00:27:18;35.45;;;20.83;;
35969;SDS011;22448;51.298;6.430;2023-10-19T00:29:48;31.20;;;21.13;;
35969;SDS011;22448;51.298;6.430;2023-10-19T00:32:16;36.03;;;22.40;;
35969;SDS011;22448;51.298;6.430;2023-10-19T00:34:44;33.17;;;21.00;;
35969;SDS011;22448;51.298;6.430;2023-10-19T00:37:19;31.23;;;21.52;;
35969;SDS011;22448;51.298;6.430;2023-10-19T00:39:53;31.20;;;21.45;;
35969;SDS011;22448;51.298;6.430;2023-10-19T00:42:22;32.10;;;21.48;;
35969;SDS011;22448;51.298;6.430;2023-10-19T00:44:58;36.35;;;22.92;;
35969;SDS011;22448;51.298;6.430;2023-10-19T00:47:47;32.92;;;22.67;;
35969;SDS011;22448;51.298;6.430;2023-10-19T00:50:15;34.42;;;22.98;;
35969;SDS011;22448;51.298;6.430;2023-10-19T00:52:44;40.33;;;25.17;;
35969;SDS011;22448;51.298;6.430;2023-10-19T00:55:16;36.13;;;24.73;;
35969;SDS011;22448;51.298;6.430;2023-10-19T00:57:48;33.53;;;23.70;;
35969;SDS011;22448;51.298;6.430;2023-10-19T01:00:16;38.13;;;23.50;;
35969;SDS011;22448;51.298;6.430;2023-10-19T01:03:01;32.78;;;22.73;;
35969;SDS011;22448;51.298;6.430;2023-10-19T01:05:32;38.50;;;23.77;;
35969;SDS011;22448;51.298;6.430;2023-10-19T01:08:04;38.15;;;25.42;;
35969;SDS011;22448;51.298;6.430;2023-10-19T01:11:10;37.58;;;25.45;;
35969;SDS011;22448;51.298;6.430;2023-10-19T01:13:38;41.05;;;25.38;;
35969;SDS011;22448;51.298;6.430;2023-10-19T01:18:42;39.38;;;24.33;;
35969;SDS011;22448;51.298;6.430;2023-10-19T01:21:09;40.53;;;26.35;;
35969;SDS011;22448;51.298;6.430;2023-10-19T01:23:38;40.80;;;26.33;;
35969;SDS011;22448;51.298;6.430;2023-10-19T01:26:05;43.58;;;27.38;;
35969;SDS011;22448;51.298;6.430;2023-10-19T01:28:35;40.58;;;25.83;;
35969;SDS011;22448;51.298;6.430;2023-10-19T01:31:07;38.58;;;26.05;;
35969;SDS011;22448;51.298;6.430;2023-10-19T01:33:41;35.90;;;26.50;;
35969;SDS011;22448;51.298;6.430;2023-10-19T01:36:08;41.55;;;27.83;;
35969;SDS011;22448;51.298;6.430;2023-10-19T01:41:09;43.45;;;25.80;;
35969;SDS011;22448;51.298;6.430;2023-10-19T01:43:46;39.05;;;27.45;;
35969;SDS011;22448;51.298;6.430;2023-10-19T01:46:15;41.65;;;27.02;;
35969;SDS011;22448;51.298;6.430;2023-10-19T01:48:51;41.63;;;27.05;;
35969;SDS011;22448;51.298;6.430;2023-10-19T01:51:23;42.15;;;26.70;;
35969;SDS011;22448;51.298;6.430;2023-10-19T01:53:55;37.05;;;26.17;;
35969;SDS011;22448;51.298;6.430;2023-10-19T01:56:23;43.00;;;25.55;;
35969;SDS011;22448;51.298;6.430;2023-10-19T01:58:50;40.38;;;25.77;;
35969;SDS011;22448;51.298;6.430;2023-10-19T02:01:21;41.53;;;25.58;;
35969;SDS011;22448;51.298;6.430;2023-10-19T02:03:58;43.00;;;27.42;;
35969;SDS011;22448;51.298;6.430;2023-10-19T02:06:28;42.80;;;27.13;;
35969;SDS011;22448;51.298;6.430;2023-10-19T02:09:17;44.35;;;27.75;;
35969;SDS011;22448;51.298;6.430;2023-10-19T02:11:45;42.63;;;26.17;;
35969;SDS011;22448;51.298;6.430;2023-10-19T02:14:18;41.40;;;27.48;;
35969;SDS011;22448;51.298;6.430;2023-10-19T02:16:47;42.22;;;26.27;;
35969;SDS011;22448;51.298;6.430;2023-10-19T02:19:19;40.88;;;26.15;;
35969;SDS011;22448;51.298;6.430;2023-10-19T02:21:47;42.40;;;26.00;;
35969;SDS011;22448;51.298;6.430;2023-10-19T02:24:15;41.10;;;26.60;;
35969;SDS011;22448;51.298;6.430;2023-10-19T02:26:43;40.85;;;23.33;;
35969;SDS011;22448;51.298;6.430;2023-10-19T02:29:11;38.10;;;22.35;;
35969;SDS011;22448;51.298;6.430;2023-10-19T02:31:39;35.38;;;22.08;;
35969;SDS011;22448;51.298;6.430;2023-10-19T02:34:07;37.60;;;22.55;;
35969;SDS011;22448;51.298;6.430;2023-10-19T02:36:37;41.67;;;21.75;;
35969;SDS011;22448;51.298;6.430;2023-10-19T02:39:06;36.00;;;21.98;;
35969;SDS011;22448;51.298;6.430;2023-10-19T02:44:03;29.85;;;18.83;;
35969;SDS011;22448;51.298;6.430;2023-10-19T02:46:53;39.50;;;21.48;;
35969;SDS011;22448;51.298;6.430;2023-10-19T02:49:27;43.63;;;24.48;;
35969;SDS011;22448;51.298;6.430;2023-10-19T02:51:56;36.70;;;21.63;;
35969;SDS011;22448;51.298;6.430;2023-10-19T02:54:31;36.22;;;22.83;;
35969;SDS011;22448;51.298;6.430;2023-10-19T02:57:02;44.72;;;22.60;;
35969;SDS011;22448;51.298;6.430;2023-10-19T02:59:33;36.83;;;23.05;;
35969;SDS011;22448;51.298;6.430;2023-10-19T03:02:01;33.15;;;21.35;;
35969;SDS011;22448;51.298;6.430;2023-10-19T03:04:37;32.47;;;18.52;;
35969;SDS011;22448;51.298;6.430;2023-10-19T03:07:05;30.13;;;17.52;;
35969;SDS011;22448;51.298;6.430;2023-10-19T03:09:35;29.45;;;17.15;;
35969;SDS011;22448;51.298;6.430;2023-10-19T03:12:20;33.55;;;18.67;;
35969;SDS011;22448;51.298;6.430;2023-10-19T03:14:52;30.73;;;18.27;;
35969;SDS011;22448;51.298;6.430;2023-10-19T03:17:20;28.13;;;17.00;;
35969;SDS011;22448;51.298;6.430;2023-10-19T03:19:47;26.27;;;17.05;;
35969;SDS011;22448;51.298;6.430;2023-10-19T03:22:15;30.85;;;18.23;;
35969;SDS011;22448;51.298;6.430;2023-10-19T03:24:43;24.35;;;17.15;;
35969;SDS011;22448;51.298;6.430;2023-10-19T03:27:11;27.67;;;17.75;;
35969;SDS011;22448;51.298;6.430;2023-10-19T03:29:44;28.45;;;16.77;;
35969;SDS011;22448;51.298;6.430;2023-10-19T03:32:15;27.05;;;16.52;;
35969;SDS011;22448;51.298;6.430;2023-10-19T03:34:48;25.63;;;16.42;;
35969;SDS011;22448;51.298;6.430;2023-10-19T03:37:17;27.10;;;16.48;;
35969;SDS011;22448;51.298;6.430;2023-10-19T03:39:48;25.15;;;15.23;;
35969;SDS011;22448;51.298;6.430;2023-10-19T03:42:15;24.52;;;16.17;;
35969;SDS011;22448;51.298;6.430;2023-10-19T03:44:43;25.65;;;16.55;;
35969;SDS011;22448;51.298;6.430;2023-10-19T03:47:10;29.75;;;18.08;;
35969;SDS011;22448;51.298;6.430;2023-10-19T03:49:47;29.55;;;18.63;;
35969;SDS011;22448;51.298;6.430;2023-10-19T03:52:17;26.20;;;18.75;;
35969;SDS011;22448;51.298;6.430;2023-10-19T03:54:45;33.28;;;19.00;;
35969;SDS011;22448;51.298;6.430;2023-10-19T03:57:15;27.50;;;18.58;;
35969;SDS011;22448;51.298;6.430;2023-10-19T03:59:47;28.98;;;18.58;;
35969;SDS011;22448;51.298;6.430;2023-10-19T04:02:18;28.88;;;19.90;;
35969;SDS011;22448;51.298;6.430;2023-10-19T04:04:50;33.35;;;19.38;;
35969;SDS011;22448;51.298;6.430;2023-10-19T04:07:19;31.17;;;19.48;;
35969;SDS011;22448;51.298;6.430;2023-10-19T04:09:50;28.98;;;19.30;;
35969;SDS011;22448;51.298;6.430;2023-10-19T04:12:34;28.83;;;18.17;;
35969;SDS011;22448;51.298;6.430;2023-10-19T04:15:09;26.70;;;17.83;;
35969;SDS011;22448;51.298;6.430;2023-10-19T04:17:43;26.42;;;17.60;;
35969;SDS011;22448;51.298;6.430;2023-10-19T04:20:12;29.25;;;18.73;;
35969;SDS011;22448;51.298;6.430;2023-10-19T04:22:43;28.88;;;18.95;;
35969;SDS011;22448;51.298;6.430;2023-10-19T04:25:15;29.85;;;19.23;;
35969;SDS011;22448;51.298;6.430;2023-10-19T04:27:43;26.70;;;18.88;;
35969;SDS011;22448;51.298;6.430;2023-10-19T04:30:11;35.22;;;21.13;;
35969;SDS011;22448;51.298;6.430;2023-10-19T04:32:49;32.67;;;20.95;;
35969;SDS011;22448;51.298;6.430;2023-10-19T04:35:17;35.95;;;20.25;;
35969;SDS011;22448;51.298;6.430;2023-10-19T04:37:51;27.63;;;19.38;;
35969;SDS011;22448;51.298;6.430;2023-10-19T04:40:20;31.15;;;20.13;;
35969;SDS011;22448;51.298;6.430;2023-10-19T04:42:48;31.30;;;21.38;;
35969;SDS011;22448;51.298;6.430;2023-10-19T04:45:17;32.10;;;20.83;;
35969;SDS011;22448;51.298;6.430;2023-10-19T04:47:44;36.35;;;22.15;;
35969;SDS011;22448;51.298;6.430;2023-10-19T04:50:13;28.58;;;20.55;;
35969;SDS011;22448;51.298;6.430;2023-10-19T04:52:40;31.63;;;21.90;;
35969;SDS011;22448;51.298;6.430;2023-10-19T04:55:07;32.45;;;20.38;;
35969;SDS011;22448;51.298;6.430;2023-10-19T04:57:35;38.25;;;21.50;;
35969;SDS011;22448;51.298;6.430;2023-10-19T05:00:02;32.97;;;20.67;;
35969;SDS011;22448;51.298;6.430;2023-10-19T05:02:30;28.40;;;19.73;;
35969;SDS011;22448;51.298;6.430;2023-10-19T05:04:57;30.20;;;20.38;;
35969;SDS011;22448;51.298;6.430;2023-10-19T05:07:24;28.02;;;19.35;;
35969;SDS011;22448;51.298;6.430;2023-10-19T05:09:53;30.50;;;17.85;;
35969;SDS011;22448;51.298;6.430;2023-10-19T05:12:20;32.08;;;19.88;;
35969;SDS011;22448;51.298;6.430;2023-10-19T05:14:48;32.83;;;19.25;;
35969;SDS011;22448;51.298;6.430;2023-10-19T05:17:15;35.28;;;20.17;;
35969;SDS011;22448;51.298;6.430;2023-10-19T05:19:42;32.95;;;19.45;;
35969;SDS011;22448;51.298;6.430;2023-10-19T05:22:10;30.95;;;19.40;;
35969;SDS011;22448;51.298;6.430;2023-10-19T05:24:37;33.78;;;19.27;;
35969;SDS011;22448;51.298;6.430;2023-10-19T05:27:04;35.33;;;18.40;;
35969;SDS011;22448;51.298;6.430;2023-10-19T05:29:34;29.48;;;17.63;;
35969;SDS011;22448;51.298;6.430;2023-10-19T05:32:00;33.30;;;17.00;;
35969;SDS011;22448;51.298;6.430;2023-10-19T05:34:29;25.95;;;16.48;;
35969;SDS011;22448;51.298;6.430;2023-10-19T05:36:58;34.80;;;18.05;;
35969;SDS011;22448;51.298;6.430;2023-10-19T05:39:25;31.05;;;19.65;;
35969;SDS011;22448;51.298;6.430;2023-10-19T05:41:57;35.63;;;20.92;;
35969;SDS011;22448;51.298;6.430;2023-10-19T05:44:29;35.40;;;20.73;;
35969;SDS011;22448;51.298;6.430;2023-10-19T05:46:57;30.58;;;20.33;;
35969;SDS011;22448;51.298;6.430;2023-10-19T05:49:25;36.58;;;20.88;;
35969;SDS011;22448;51.298;6.430;2023-10-19T05:51:53;36.72;;;21.98;;
35969;SDS011;22448;51.298;6.430;2023-10-19T05:54:20;32.95;;;21.02;;
35969;SDS011;22448;51.298;6.430;2023-10-19T05:56:50;31.58;;;20.08;;
35969;SDS011;22448;51.298;6.430;2023-10-19T05:59:19;37.83;;;20.13;;
35969;SDS011;22448;51.298;6.430;2023-10-19T06:01:46;32.95;;;20.75;;
35969;SDS011;22448;51.298;6.430;2023-10-19T06:04:15;36.92;;;21.25;;
35969;SDS011;22448;51.298;6.430;2023-10-19T06:06:46;27.25;;;18.42;;
35969;SDS011;22448;51.298;6.430;2023-10-19T06:09:15;35.00;;;19.20;;
35969;SDS011;22448;51.298;6.430;2023-10-19T06:11:42;30.38;;;17.52;;
35969;SDS011;22448;51.298;6.430;2023-10-19T06:14:09;35.53;;;18.67;;
35969;SDS011;22448;51.298;6.430;2023-10-19T06:16:37;30.17;;;19.40;;
35969;SDS011;22448;51.298;6.430;2023-10-19T06:19:04;36.83;;;20.02;;
35969;SDS011;22448;51.298;6.430;2023-10-19T06:21:32;41.25;;;20.98;;
35969;SDS011;22448;51.298;6.430;2023-10-19T06:24:00;36.20;;;20.30;;
35969;SDS011;22448;51.298;6.430;2023-10-19T06:26:27;34.67;;;19.80;;
35969;SDS011;22448;51.298;6.430;2023-10-19T06:28:55;36.83;;;19.55;;
35969;SDS011;22448;51.298;6.430;2023-10-19T06:31:29;36.50;;;20.13;;
35969;SDS011;22448;51.298;6.430;2023-10-19T06:33:57;33.08;;;20.08;;
35969;SDS011;22448;51.298;6.430;2023-10-19T06:36:24;31.17;;;19.63;;
35969;SDS011;22448;51.298;6.430;2023-10-19T06:38:52;33.55;;;20.63;;
35969;SDS011;22448;51.298;6.430;2023-10-19T06:41:21;34.15;;;20.13;;
35969;SDS011;22448;51.298;6.430;2023-10-19T06:43:48;32.55;;;19.45;;
35969;SDS011;22448;51.298;6.430;2023-10-19T06:46:17;31.27;;;17.73;;
35969;SDS011;22448;51.298;6.430;2023-10-19T06:48:44;30.05;;;18.67;;
35969;SDS011;22448;51.298;6.430;2023-10-19T06:51:11;32.60;;;17.85;;
35969;SDS011;22448;51.298;6.430;2023-10-19T06:53:38;37.70;;;18.50;;
35969;SDS011;22448;51.298;6.430;2023-10-19T06:56:05;32.08;;;16.75;;
35969;SDS011;22448;51.298;6.430;2023-10-19T06:58:33;31.92;;;16.73;;
35969;SDS011;22448;51.298;6.430;2023-10-19T07:01:01;29.98;;;15.90;;
35969;SDS011;22448;51.298;6.430;2023-10-19T07:03:37;25.80;;;15.65;;
35969;SDS011;22448;51.298;6.430;2023-10-19T07:06:04;26.35;;;15.10;;
35969;SDS011;22448;51.298;6.430;2023-10-19T07:08:39;29.15;;;15.18;;
35969;SDS011;22448;51.298;6.430;2023-10-19T07:11:09;33.38;;;14.82;;
35969;SDS011;22448;51.298;6.430;2023-10-19T07:13:37;25.13;;;14.10;;
35969;SDS011;22448;51.298;6.430;2023-10-19T07:16:04;28.35;;;14.93;;
35969;SDS011;22448;51.298;6.430;2023-10-19T07:18:31;28.35;;;15.20;;
35969;SDS011;22448;51.298;6.430;2023-10-19T07:20:58;28.45;;;14.85;;
35969;SDS011;22448;51.298;6.430;2023-10-19T07:23:32;26.95;;;14.23;;
35969;SDS011;22448;51.298;6.430;2023-10-19T07:25:59;20.85;;;13.68;;
35969;SDS011;22448;51.298;6.430;2023-10-19T07:28:26;26.52;;;14.30;;
35969;SDS011;22448;51.298;6.430;2023-10-19T07:30:54;23.58;;;13.95;;
35969;SDS011;22448;51.298;6.430;2023-10-19T07:33:23;22.73;;;13.95;;
35969;SDS011;22448;51.298;6.430;2023-10-19T07:35:50;24.02;;;12.63;;
35969;SDS011;22448;51.298;6.430;2023-10-19T07:38:26;22.02;;;12.48;;
35969;SDS011;22448;51.298;6.430;2023-10-19T07:40:55;25.65;;;12.82;;
35969;SDS011;22448;51.298;6.430;2023-10-19T07:43:22;25.77;;;13.05;;
35969;SDS011;22448;51.298;6.430;2023-10-19T07:45:51;24.83;;;13.15;;
35969;SDS011;22448;51.298;6.430;2023-10-19T07:48:19;25.33;;;11.43;;
35969;SDS011;22448;51.298;6.430;2023-10-19T07:50:46;28.48;;;12.23;;
35969;SDS011;22448;51.298;6.430;2023-10-19T07:53:13;24.98;;;10.98;;
35969;SDS011;22448;51.298;6.430;2023-10-19T07:55:41;24.52;;;12.00;;
35969;SDS011;22448;51.298;6.430;2023-10-19T07:58:09;21.17;;;11.35;;
35969;SDS011;22448;51.298;6.430;2023-10-19T08:00:36;18.00;;;10.93;;
35969;SDS011;22448;51.298;6.430;2023-10-19T08:03:05;24.77;;;10.63;;
35969;SDS011;22448;51.298;6.430;2023-10-19T08:05:33;16.40;;;10.68;;
35969;SDS011;22448;51.298;6.430;2023-10-19T08:08:02;18.15;;;11.05;;
35969;SDS011;22448;51.298;6.430;2023-10-19T08:10:32;23.55;;;11.18;;
35969;SDS011;22448;51.298;6.430;2023-10-19T08:13:03;19.90;;;11.43;;
35969;SDS011;22448;51.298;6.430;2023-10-19T08:15:30;18.67;;;11.27;;
35969;SDS011;22448;51.298;6.430;2023-10-19T08:17:58;20.63;;;11.30;;
35969;SDS011;22448;51.298;6.430;2023-10-19T08:20:25;21.55;;;10.40;;
35969;SDS011;22448;51.298;6.430;2023-10-19T08:25:25;18.73;;;9.90;;
35969;SDS011;22448;51.298;6.430;2023-10-19T08:28:16;16.20;;;8.55;;
35969;SDS011;22448;51.298;6.430;2023-10-19T08:30:44;15.00;;;8.82;;
35969;SDS011;22448;51.298;6.430;2023-10-19T08:33:24;18.83;;;8.52;;
35969;SDS011;22448;51.298;6.430;2023-10-19T08:35:56;12.82;;;5.90;;
35969;SDS011;22448;51.298;6.430;2023-10-19T08:38:23;18.05;;;8.88;;
35969;SDS011;22448;51.298;6.430;2023-10-19T08:40:50;17.67;;;8.20;;
35969;SDS011;22448;51.298;6.430;2023-10-19T08:43:18;15.85;;;8.00;;
35969;SDS011;22448;51.298;6.430;2023-10-19T08:45:45;18.98;;;7.10;;
35969;SDS011;22448;51.298;6.430;2023-10-19T08:48:13;12.90;;;7.32;;
35969;SDS011;22448;51.298;6.430;2023-10-19T08:50:40;13.35;;;6.47;;
35969;SDS011;22448;51.298;6.430;2023-10-19T08:53:08;11.90;;;6.35;;
35969;SDS011;22448;51.298;6.430;2023-10-19T08:55:36;18.08;;;5.82;;
35969;SDS011;22448;51.298;6.430;2023-10-19T08:58:15;9.90;;;4.93;;
35969;SDS011;22448;51.298;6.430;2023-10-19T09:00:45;12.05;;;4.82;;
35969;SDS011;22448;51.298;6.430;2023-10-19T09:03:14;12.23;;;4.75;;
35969;SDS011;22448;51.298;6.430;2023-10-19T09:05:44;11.68;;;3.97;;
35969;SDS011;22448;51.298;6.430;2023-10-19T09:08:15;8.52;;;3.67;;
35969;SDS011;22448;51.298;6.430;2023-10-19T09:10:44;9.57;;;4.22;;
35969;SDS011;22448;51.298;6.430;2023-10-19T09:13:13;10.70;;;4.28;;
35969;SDS011;22448;51.298;6.430;2023-10-19T09:15:42;12.38;;;3.95;;
35969;SDS011;22448;51.298;6.430;2023-10-19T09:18:13;8.27;;;4.13;;
35969;SDS011;22448;51.298;6.430;2023-10-19T09:20:48;10.10;;;4.03;;
35969;SDS011;22448;51.298;6.430;2023-10-19T09:23:21;10.88;;;3.88;;
35969;SDS011;22448;51.298;6.430;2023-10-19T09:25:53;12.35;;;3.78;;
35969;SDS011;22448;51.298;6.430;2023-10-19T09:28:22;9.60;;;4.30;;
35969;SDS011;22448;51.298;6.430;2023-10-19T09:30:51;13.27;;;3.42;;
35969;SDS011;22448;51.298;6.430;2023-10-19T09:33:18;15.32;;;3.75;;
35969;SDS011;22448;51.298;6.430;2023-10-19T09:35:48;11.13;;;3.30;;
35969;SDS011;22448;51.298;6.430;2023-10-19T09:38:19;12.02;;;3.33;;
35969;SDS011;22448;51.298;6.430;2023-10-19T09:40:51;12.68;;;3.67;;
35969;SDS011;22448;51.298;6.430;2023-10-19T09:43:37;11.35;;;3.42;;
35969;SDS011;22448;51.298;6.430;2023-10-19T09:46:08;13.32;;;3.40;;
35969;SDS011;22448;51.298;6.430;2023-10-19T09:48:40;10.43;;;3.05;;
35969;SDS011;22448;51.298;6.430;2023-10-19T09:51:14;9.77;;;3.22;;
35969;SDS011;22448;51.298;6.430;2023-10-19T09:53:45;20.40;;;3.70;;
35969;SDS011;22448;51.298;6.430;2023-10-19T09:56:18;11.52;;;2.72;;
35969;SDS011;22448;51.298;6.430;2023-10-19T09:58:57;12.32;;;2.58;;
35969;SDS011;22448;51.298;6.430;2023-10-19T10:04:33;13.70;;;2.55;;
35969;SDS011;22448;51.298;6.430;2023-10-19T10:07:05;15.07;;;3.40;;
35969;SDS011;22448;51.298;6.430;2023-10-19T10:09:37;10.35;;;2.72;;
35969;SDS011;22448;51.298;6.430;2023-10-19T10:12:16;11.23;;;2.72;;
35969;SDS011;22448;51.298;6.430;2023-10-19T10:14:57;14.50;;;3.35;;
35969;SDS011;22448;51.298;6.430;2023-10-19T10:17:30;10.18;;;2.28;;
35969;SDS011;22448;51.298;6.430;2023-10-19T10:22:39;10.88;;;2.85;;
35969;SDS011;22448;51.298;6.430;2023-10-19T10:25:08;7.00;;;2.22;;
35969;SDS011;22448;51.298;6.430;2023-10-19T10:27:54;17.38;;;3.22;;
35969;SDS011;22448;51.298;6.430;2023-10-19T10:30:23;8.85;;;2.08;;
35969;SDS011;22448;51.298;6.430;2023-10-19T10:32:51;12.55;;;2.53;;
35969;SDS011;22448;51.298;6.430;2023-10-19T10:38:04;18.70;;;3.00;;
35969;SDS011;22448;51.298;6.430;2023-10-19T10:40:45;16.52;;;2.90;;
35969;SDS011;22448;51.298;6.430;2023-10-19T10:43:19;9.75;;;2.47;;
35969;SDS011;22448;51.298;6.430;2023-10-19T10:45:48;14.23;;;2.83;;
35969;SDS011;22448;51.298;6.430;2023-10-19T10:48:16;16.08;;;2.75;;
35969;SDS011;22448;51.298;6.430;2023-10-19T10:50:46;9.02;;;2.75;;
35969;SDS011;22448;51.298;6.430;2023-10-19T10:53:28;11.77;;;2.63;;
35969;SDS011;22448;51.298;6.430;2023-10-19T10:56:01;17.77;;;3.17;;
35969;SDS011;22448;51.298;6.430;2023-10-19T10:58:28;17.42;;;2.63;;
35969;SDS011;22448;51.298;6.430;2023-10-19T11:00:55;10.07;;;2.40;;
35969;SDS011;22448;51.298;6.430;2023-10-19T11:03:23;15.05;;;2.70;;
35969;SDS011;22448;51.298;6.430;2023-10-19T11:08:30;17.10;;;3.17;;
35969;SDS011;22448;51.298;6.430;2023-10-19T11:11:09;16.48;;;2.95;;
35969;SDS011;22448;51.298;6.430;2023-10-19T11:13:39;17.42;;;3.30;;
35969;SDS011;22448;51.298;6.430;2023-10-19T11:16:06;8.27;;;2.75;;
35969;SDS011;22448;51.298;6.430;2023-10-19T11:18:38;15.55;;;3.30;;
35969;SDS011;22448;51.298;6.430;2023-10-19T11:21:07;17.60;;;3.30;;
35969;SDS011;22448;51.298;6.430;2023-10-19T11:23:42;12.38;;;2.65;;
35969;SDS011;22448;51.298;6.430;2023-10-19T11:26:14;14.32;;;2.97;;
35969;SDS011;22448;51.298;6.430;2023-10-19T11:28:44;12.27;;;2.50;;
35969;SDS011;22448;51.298;6.430;2023-10-19T11:31:18;12.25;;;2.80;;
35969;SDS011;22448;51.298;6.430;2023-10-19T11:33:52;16.35;;;3.42;;
35969;SDS011;22448;51.298;6.430;2023-10-19T11:36:21;10.65;;;2.50;;
35969;SDS011;22448;51.298;6.430;2023-10-19T11:38:51;16.27;;;3.50;;
35969;SDS011;22448;51.298;6.430;2023-10-19T11:41:19;17.60;;;3.20;;
35969;SDS011;22448;51.298;6.430;2023-10-19T11:43:47;10.38;;;2.97;;
35969;SDS011;22448;51.298;6.430;2023-10-19T11:46:16;14.93;;;3.22;;
35969;SDS011;22448;51.298;6.430;2023-10-19T11:48:52;14.10;;;3.50;;
35969;SDS011;22448;51.298;6.430;2023-10-19T11:51:19;16.65;;;2.72;;
35969;SDS011;22448;51.298;6.430;2023-10-19T11:53:46;16.20;;;3.33;;
35969;SDS011;22448;51.298;6.430;2023-10-19T11:56:13;13.30;;;3.20;;
35969;SDS011;22448;51.298;6.430;2023-10-19T11:58:42;13.57;;;3.40;;
35969;SDS011;22448;51.298;6.430;2023-10-19T12:01:14;17.95;;;4.47;;
35969;SDS011;22448;51.298;6.430;2023-10-19T12:03:44;15.98;;;4.03;;
35969;SDS011;22448;51.298;6.430;2023-10-19T12:06:15;13.30;;;3.90;;
35969;SDS011;22448;51.298;6.430;2023-10-19T12:08:46;14.68;;;3.40;;
35969;SDS011;22448;51.298;6.430;2023-10-19T12:11:13;18.17;;;3.45;;
35969;SDS011;22448;51.298;6.430;2023-10-19T12:13:45;20.55;;;4.15;;
35969;SDS011;22448;51.298;6.430;2023-10-19T12:16:14;18.40;;;3.92;;
35969;SDS011;22448;51.298;6.430;2023-10-19T12:18:46;13.30;;;3.60;;
35969;SDS011;22448;51.298;6.430;2023-10-19T12:21:15;15.45;;;3.45;;
35969;SDS011;22448;51.298;6.430;2023-10-19T12:23:44;19.35;;;4.00;;
35969;SDS011;22448;51.298;6.430;2023-10-19T12:26:17;13.45;;;3.25;;
35969;SDS011;22448;51.298;6.430;2023-10-19T12:28:46;21.15;;;4.53;;
35969;SDS011;22448;51.298;6.430;2023-10-19T12:31:15;11.32;;;3.00;;
35969;SDS011;22448;51.298;6.430;2023-10-19T12:33:46;19.42;;;3.30;;
35969;SDS011;22448;51.298;6.430;2023-10-19T12:36:13;11.57;;;3.22;;
35969;SDS011;22448;51.298;6.430;2023-10-19T12:38:55;15.67;;;3.57;;
35969;SDS011;22448;51.298;6.430;2023-10-19T12:41:23;15.13;;;3.45;;
35969;SDS011;22448;51.298;6.430;2023-10-19T12:43:51;16.15;;;4.00;;
35969;SDS011;22448;51.298;6.430;2023-10-19T12:46:19;13.43;;;3.33;;
35969;SDS011;22448;51.298;6.430;2023-10-19T12:48:51;13.02;;;3.17;;
35969;SDS011;22448;51.298;6.430;2023-10-19T12:51:19;11.38;;;3.00;;
35969;SDS011;22448;51.298;6.430;2023-10-19T12:53:53;16.10;;;3.33;;
35969;SDS011;22448;51.298;6.430;2023-10-19T12:56:21;19.67;;;3.67;;
35969;SDS011;22448;51.298;6.430;2023-10-19T12:58:51;16.85;;;2.95;;
35969;SDS011;22448;51.298;6.430;2023-10-19T13:01:18;13.15;;;2.90;;
35969;SDS011;22448;51.298;6.430;2023-10-19T13:03:46;15.05;;;3.08;;
35969;SDS011;22448;51.298;6.430;2023-10-19T13:06:16;16.25;;;2.78;;
35969;SDS011;22448;51.298;6.430;2023-10-19T13:08:44;13.73;;;3.00;;
35969;SDS011;22448;51.298;6.430;2023-10-19T13:11:11;13.77;;;3.05;;
35969;SDS011;22448;51.298;6.430;2023-10-19T13:13:45;9.57;;;2.50;;
35969;SDS011;22448;51.298;6.430;2023-10-19T13:16:14;14.10;;;3.03;;
35969;SDS011;22448;51.298;6.430;2023-10-19T13:18:41;14.82;;;3.17;;
35969;SDS011;22448;51.298;6.430;2023-10-19T13:21:09;16.17;;;3.47;;
35969;SDS011;22448;51.298;6.430;2023-10-19T13:23:38;15.27;;;3.17;;
35969;SDS011;22448;51.298;6.430;2023-10-19T13:26:05;14.32;;;3.13;;
35969;SDS011;22448;51.298;6.430;2023-10-19T13:28:44;14.70;;;3.10;;
35969;SDS011;22448;51.298;6.430;2023-10-19T13:31:13;16.02;;;3.40;;
35969;SDS011;22448;51.298;6.430;2023-10-19T13:33:40;16.90;;;3.67;;
35969;SDS011;22448;51.298;6.430;2023-10-19T13:36:12;17.17;;;3.45;;
35969;SDS011;22448;51.298;6.430;2023-10-19T13:38:40;30.77;;;3.30;;
35969;SDS011;22448;51.298;6.430;2023-10-19T13:41:08;21.48;;;3.50;;
35969;SDS011;22448;51.298;6.430;2023-10-19T13:43:41;13.07;;;3.40;;
35969;SDS011;22448;51.298;6.430;2023-10-19T13:46:11;15.05;;;3.22;;
35969;SDS011;22448;51.298;6.430;2023-10-19T13:48:38;16.45;;;3.55;;
35969;SDS011;22448;51.298;6.430;2023-10-19T13:51:06;16.95;;;3.63;;
35969;SDS011;22448;51.298;6.430;2023-10-19T13:53:40;17.33;;;3.30;;
35969;SDS011;22448;51.298;6.430;2023-10-19T13:56:08;11.05;;;3.22;;
35969;SDS011;22448;51.298;6.430;2023-10-19T13:58:37;16.33;;;3.50;;
35969;SDS011;22448;51.298;6.430;2023-10-19T14:01:08;14.35;;;3.53;;
35969;SDS011;22448;51.298;6.430;2023-10-19T14:03:37;17.92;;;3.00;;
35969;SDS011;22448;51.298;6.430;2023-10-19T14:06:04;16.05;;;4.03;;
35969;SDS011;22448;51.298;6.430;2023-10-19T14:08:38;12.70;;;3.65;;
35969;SDS011;22448;51.298;6.430;2023-10-19T14:11:05;23.83;;;3.28;;
35969;SDS011;22448;51.298;6.430;2023-10-19T14:13:33;18.42;;;3.42;;
35969;SDS011;22448;51.298;6.430;2023-10-19T14:16:05;16.83;;;3.88;;
35969;SDS011;22448;51.298;6.430;2023-10-19T14:21:14;22.85;;;3.47;;
35969;SDS011;22448;51.298;6.430;2023-10-19T14:23:43;15.45;;;3.63;;
35969;SDS011;22448;51.298;6.430;2023-10-19T14:26:11;21.08;;;3.78;;
35969;SDS011;22448;51.298;6.430;2023-10-19T14:28:39;9.18;;;3.00;;
35969;SDS011;22448;51.298;6.430;2023-10-19T14:31:07;20.73;;;3.78;;
35969;SDS011;22448;51.298;6.430;2023-10-19T14:33:34;16.65;;;3.85;;
35969;SDS011;22448;51.298;6.430;2023-10-19T14:36:02;21.50;;;4.13;;
35969;SDS011;22448;51.298;6.430;2023-10-19T14:38:30;17.30;;;4.43;;
35969;SDS011;22448;51.298;6.430;2023-10-19T14:40:58;13.02;;;3.70;;
35969;SDS011;22448;51.298;6.430;2023-10-19T14:43:25;14.73;;;3.95;;
35969;SDS011;22448;51.298;6.430;2023-10-19T14:45:55;23.73;;;4.25;;
35969;SDS011;22448;51.298;6.430;2023-10-19T14:48:23;14.38;;;4.38;;
35969;SDS011;22448;51.298;6.430;2023-10-19T14:50:51;13.77;;;4.15;;
35969;SDS011;22448;51.298;6.430;2023-10-19T14:53:20;17.52;;;3.65;;
35969;SDS011;22448;51.298;6.430;2023-10-19T14:55:47;16.10;;;3.67;;
35969;SDS011;22448;51.298;6.430;2023-10-19T14:58:14;19.38;;;4.05;;
35969;SDS011;22448;51.298;6.430;2023-10-19T15:00:41;19.73;;;4.20;;
35969;SDS011;22448;51.298;6.430;2023-10-19T15:03:10;14.55;;;3.72;;
35969;SDS011;22448;51.298;6.430;2023-10-19T15:05:38;15.13;;;3.90;;
35969;SDS011;22448;51.298;6.430;2023-10-19T15:08:05;16.17;;;4.63;;
35969;SDS011;22448;51.298;6.430;2023-10-19T15:10:34;19.33;;;4.57;;
35969;SDS011;22448;51.298;6.430;2023-10-19T15:13:06;15.95;;;4.63;;